Time;durP1;ratioP1;P1;durP2;ratioP2;P2;SDS_P1;SDS_P2;PMS_P1;PMS_P2;Temp;Humidity;BMP_temperature;BMP_pressure;BME280_temperature;BME280_humidity;BME280_pressure;Samples;Min_cycle;Max_cycle;Signal;HPM_P1;HPM_P2
2023/10/13 00:01:13;;;;;;;18.27;10.13;;;16.30;99.90;;;;;;5046164;28;20444;-67
2023/10/13 00:03:42;;;;;;;17.20;10.80;;;16.30;99.90;;;;;;5045228;28;20476;-68
2023/10/13 00:06:11;;;;;;;20.57;11.23;;;16.30;99.90;;;;;;5032079;28;20531;-68
2023/10/13 00:08:39;;;;;;;18.93;9.87;;;16.40;99.90;;;;;;5034860;28;20499;-68
2023/10/13 00:11:09;;;;;;;16.70;9.93;;;16.40;99.90;;;;;;5041663;28;20456;-67
2023/10/13 00:13:42;;;;;;;17.57;9.50;;;16.30;99.90;;;;;;5045711;28;20478;-68
2023/10/13 00:16:17;;;;;;;20.43;9.70;;;16.30;99.90;;;;;;5052594;28;20448;-68
2023/10/13 00:18:45;;;;;;;16.17;8.60;;;16.20;99.90;;;;;;5051494;28;20566;-67
2023/10/13 00:21:24;;;;;;;20.37;9.50;;;16.10;99.90;;;;;;5051588;28;20456;-68
2023/10/13 00:23:55;;;;;;;15.40;9.23;;;15.90;99.90;;;;;;5050938;28;20459;-68
2023/10/13 00:26:27;;;;;;;19.33;10.20;;;15.80;99.90;;;;;;5050972;28;20456;-69
2023/10/13 00:29:08;;;;;;;17.53;9.70;;;15.70;99.90;;;;;;5050423;28;20515;-70
2023/10/13 00:31:40;;;;;;;19.80;10.37;;;15.90;99.90;;;;;;5031592;28;20432;-68
2023/10/13 00:34:11;;;;;;;16.03;9.30;;;15.80;99.90;;;;;;5032098;28;20523;-69
2023/10/13 00:36:48;;;;;;;17.67;10.40;;;15.80;99.90;;;;;;5041164;28;20440;-68
2023/10/13 00:39:16;;;;;;;21.47;11.93;;;15.70;99.90;;;;;;5046136;28;20479;-68
2023/10/13 00:41:52;;;;;;;17.67;10.00;;;15.60;99.90;;;;;;5050182;28;20444;-68
2023/10/13 00:44:26;;;;;;;16.07;9.47;;;15.50;99.90;;;;;;5050381;28;20521;-68
2023/10/13 00:46:56;;;;;;;18.13;11.60;;;15.40;99.90;;;;;;5050465;28;20447;-69
2023/10/13 00:49:24;;;;;;;19.70;10.50;;;15.20;99.90;;;;;;5050568;28;20894;-67
2023/10/13 00:51:56;;;;;;;17.53;9.60;;;15.20;99.90;;;;;;5050193;28;20443;-68
2023/10/13 00:54:26;;;;;;;19.77;9.70;;;15.20;99.90;;;;;;5050171;28;20482;-68
2023/10/13 00:57:04;;;;;;;18.00;9.63;;;15.10;99.90;;;;;;5050450;28;20440;-67
2023/10/13 00:59:41;;;;;;;19.43;10.70;;;15.00;99.90;;;;;;5045231;28;20549;-70
2023/10/13 01:04:54;;;;;;;14.73;8.47;;;14.70;99.90;;;;;;5030511;28;20513;-68
2023/10/13 01:07:23;;;;;;;17.20;9.40;;;14.60;99.90;;;;;;5042403;28;20448;-67
2023/10/13 01:09:51;;;;;;;21.23;9.60;;;14.70;99.90;;;;;;5045246;28;20497;-68
2023/10/13 01:12:18;;;;;;;22.83;10.20;;;14.70;99.90;;;;;;5049742;28;20476;-69
2023/10/13 01:14:46;;;;;;;19.77;10.23;;;14.70;99.90;;;;;;5050010;28;20491;-69
2023/10/13 01:17:13;;;;;;;15.47;9.70;;;14.70;99.90;;;;;;5050099;28;20512;-68
2023/10/13 01:19:42;;;;;;;19.47;11.00;;;14.70;99.90;;;;;;5050815;28;20489;-69
2023/10/13 01:22:11;;;;;;;15.73;9.60;;;14.70;99.90;;;;;;5049282;28;20448;-68
2023/10/13 01:24:40;;;;;;;15.93;9.57;;;14.60;99.90;;;;;;5049814;28;20465;-68
2023/10/13 01:27:17;;;;;;;21.63;10.10;;;14.60;99.90;;;;;;5050011;28;20450;-68
2023/10/13 01:29:48;;;;;;;17.47;9.93;;;14.60;99.90;;;;;;5043762;28;20451;-69
2023/10/13 01:32:17;;;;;;;17.77;10.13;;;14.50;99.90;;;;;;5030792;28;20451;-66
2023/10/13 01:34:46;;;;;;;19.97;10.37;;;14.50;99.90;;;;;;5032906;28;20994;-68
2023/10/13 01:37:15;;;;;;;17.43;10.57;;;14.40;99.90;;;;;;5042081;28;20448;-67
2023/10/13 01:39:47;;;;;;;20.50;10.80;;;14.30;99.90;;;;;;5045077;28;20503;-68
2023/10/13 01:42:19;;;;;;;21.17;11.77;;;14.30;99.90;;;;;;5049720;28;20938;-69
2023/10/13 01:44:47;;;;;;;21.73;10.70;;;14.10;99.90;;;;;;5049703;28;20459;-68
2023/10/13 01:47:16;;;;;;;18.40;10.50;;;14.10;99.90;;;;;;5049336;28;20472;-68
2023/10/13 01:49:46;;;;;;;18.70;10.40;;;14.00;99.90;;;;;;5048853;28;20458;-69
2023/10/13 01:52:16;;;;;;;17.17;10.13;;;13.90;99.90;;;;;;5049144;28;20470;-68
2023/10/13 01:54:46;;;;;;;18.40;10.13;;;13.80;99.90;;;;;;5048272;28;20555;-68
2023/10/13 01:57:14;;;;;;;19.67;10.07;;;13.80;99.90;;;;;;5049194;28;20849;-67
2023/10/13 01:59:43;;;;;;;20.90;10.50;;;13.70;99.90;;;;;;5048955;28;20556;-68
2023/10/13 02:02:12;;;;;;;17.60;10.27;;;13.60;99.90;;;;;;5035431;28;20458;-68
2023/10/13 02:04:46;;;;;;;17.10;10.13;;;13.70;99.90;;;;;;5029681;28;20476;-69
2023/10/13 02:07:16;;;;;;;18.17;10.30;;;13.70;99.90;;;;;;5035836;28;20445;-67
2023/10/13 02:09:44;;;;;;;17.30;9.90;;;13.70;99.90;;;;;;5045698;28;20450;-68
2023/10/13 02:12:14;;;;;;;16.50;9.43;;;13.60;99.90;;;;;;5048603;28;20448;-68
2023/10/13 02:14:42;;;;;;;17.57;10.00;;;13.60;99.90;;;;;;5049181;28;20890;-67
2023/10/13 02:17:12;;;;;;;20.63;11.10;;;13.60;99.90;;;;;;5049243;28;20535;-67
2023/10/13 02:19:44;;;;;;;16.17;9.63;;;13.40;99.90;;;;;;5048937;28;20912;-69
2023/10/13 02:22:21;;;;;;;18.90;9.70;;;13.50;99.90;;;;;;5048483;28;20444;-68
2023/10/13 02:24:52;;;;;;;16.13;9.23;;;13.40;99.90;;;;;;5048676;28;20463;-67
2023/10/13 02:27:23;;;;;;;16.60;9.20;;;13.40;99.90;;;;;;5048642;28;20490;-68
2023/10/13 02:29:58;;;;;;;16.70;10.10;;;13.40;99.90;;;;;;5048548;28;21096;-69
2023/10/13 02:32:26;;;;;;;17.83;9.07;;;13.30;99.90;;;;;;5032541;28;20541;-68
2023/10/13 02:34:57;;;;;;;19.20;11.77;;;13.20;99.90;;;;;;5025945;28;21065;-68
2023/10/13 02:37:24;;;;;;;17.50;10.27;;;13.10;99.90;;;;;;5034151;28;20453;-70
2023/10/13 02:39:52;;;;;;;16.57;9.83;;;13.20;99.90;;;;;;5030927;28;20568;-67
2023/10/13 02:42:23;;;;;;;19.73;11.00;;;13.20;99.90;;;;;;5048169;28;20448;-67
2023/10/13 02:44:52;;;;;;;17.00;10.37;;;13.20;99.90;;;;;;5048451;28;20471;-67
2023/10/13 02:47:23;;;;;;;17.80;9.80;;;13.00;99.90;;;;;;5048740;28;20710;-68
2023/10/13 02:49:50;;;;;;;20.50;10.40;;;13.00;99.90;;;;;;5048609;28;20440;-70
2023/10/13 02:52:20;;;;;;;16.80;8.87;;;13.00;99.90;;;;;;5048505;28;20484;-67
2023/10/13 02:54:47;;;;;;;20.67;12.10;;;13.00;99.90;;;;;;5048322;28;20483;-68
2023/10/13 02:57:16;;;;;;;18.47;10.87;;;13.10;99.90;;;;;;5048729;28;20455;-68
2023/10/13 02:59:46;;;;;;;17.80;10.30;;;13.00;99.90;;;;;;5048171;28;20488;-70
2023/10/13 03:02:23;;;;;;;16.10;9.90;;;12.90;99.90;;;;;;5041488;28;20463;-67
2023/10/13 03:04:51;;;;;;;16.53;10.00;;;12.90;99.90;;;;;;5028001;28;20470;-67
2023/10/13 03:07:23;;;;;;;17.73;10.93;;;12.90;99.90;;;;;;5030520;28;20570;-68
2023/10/13 03:09:50;;;;;;;19.17;10.27;;;12.90;99.90;;;;;;5044520;28;20917;-67
2023/10/13 03:12:20;;;;;;;17.67;10.40;;;12.90;99.90;;;;;;5047924;28;20464;-68
2023/10/13 03:14:48;;;;;;;22.53;11.87;;;12.80;99.90;;;;;;5031944;28;20549;-67
2023/10/13 03:17:19;;;;;;;19.57;9.80;;;12.80;99.90;;;;;;5032281;28;20538;-68
2023/10/13 03:19:49;;;;;;;19.90;10.80;;;12.80;99.90;;;;;;5042781;28;21067;-68
2023/10/13 03:22:30;;;;;;;21.73;11.13;;;12.70;99.90;;;;;;5052002;28;20451;-67
2023/10/13 03:25:04;;;;;;;20.40;10.50;;;12.70;99.90;;;;;;5052225;28;20830;-67
2023/10/13 03:27:41;;;;;;;18.67;9.67;;;12.70;99.90;;;;;;5051971;28;20522;-69
2023/10/13 03:30:14;;;;;;;15.83;9.80;;;12.60;99.90;;;;;;5052262;28;20440;-68
2023/10/13 03:32:43;;;;;;;18.90;10.57;;;12.60;99.90;;;;;;5051783;28;20440;-67
2023/10/13 03:35:13;;;;;;;16.17;9.97;;;12.50;99.90;;;;;;5048526;28;20452;-68
2023/10/13 03:37:41;;;;;;;19.93;10.30;;;12.60;99.90;;;;;;5031994;28;20540;-68
2023/10/13 03:40:34;;;;;;;17.03;9.20;;;12.50;99.90;;;;;;5037651;28;20518;-68
2023/10/13 03:43:05;;;;;;;22.43;10.40;;;12.50;99.90;;;;;;5038849;28;20467;-68
2023/10/13 03:45:38;;;;;;;18.73;10.07;;;12.60;99.90;;;;;;5044360;28;20450;-69
2023/10/13 03:48:09;;;;;;;16.30;9.40;;;12.60;99.90;;;;;;5051903;28;20439;-70
2023/10/13 03:50:46;;;;;;;15.80;9.17;;;12.60;99.90;;;;;;5051730;28;20446;-68
2023/10/13 03:53:14;;;;;;;18.20;9.13;;;12.50;99.90;;;;;;5051460;28;20965;-68
2023/10/13 03:55:47;;;;;;;23.20;10.57;;;12.50;99.90;;;;;;5051414;28;20497;-67
2023/10/13 03:58:17;;;;;;;15.70;9.53;;;12.40;99.90;;;;;;5032646;28;20533;-67
2023/10/13 04:00:47;;;;;;;16.00;8.97;;;12.40;99.90;;;;;;5031482;28;20484;-67
2023/10/13 04:03:18;;;;;;;18.20;10.30;;;12.40;99.90;;;;;;5039494;28;20460;-68
2023/10/13 04:06:00;;;;;;;16.13;8.57;;;12.30;99.90;;;;;;5041369;28;20469;-68
2023/10/13 04:09:15;;;;;;;17.80;8.70;;;12.40;99.90;;;;;;5028892;28;20457;-68
2023/10/13 04:12:17;;;;;;;16.97;9.10;;;12.30;99.90;;;;;;5030260;28;20503;-70
2023/10/13 04:17:22;;;;;;;18.70;10.07;;;12.30;99.90;;;;;;5030795;28;20453;-68
2023/10/13 04:28:15;;;;;;;17.73;9.87;;;12.30;99.90;;;;;;5049506;28;20454;-68
2023/10/13 04:30:57;;;;;;;17.10;9.10;;;12.40;99.90;;;;;;5035004;28;20448;-68
2023/10/13 04:33:45;;;;;;;17.50;9.50;;;12.40;99.90;;;;;;5028854;28;20471;-68
2023/10/13 04:36:13;;;;;;;16.33;9.90;;;12.50;99.90;;;;;;5037731;28;20449;-67
2023/10/13 04:38:56;;;;;;;17.13;10.20;;;12.60;99.90;;;;;;5049892;28;20453;-68
2023/10/13 04:41:25;;;;;;;18.07;9.80;;;12.60;99.90;;;;;;5050306;28;21019;-68
2023/10/13 04:43:56;;;;;;;15.63;9.53;;;12.50;99.90;;;;;;5038478;28;20472;-68
2023/10/13 04:49:28;;;;;;;20.83;9.60;;;12.50;99.90;;;;;;5034980;28;20460;-67
2023/10/13 04:51:58;;;;;;;15.77;8.17;;;12.40;99.90;;;;;;5027643;28;20449;-67
2023/10/13 04:54:33;;;;;;;15.87;8.20;;;12.40;99.90;;;;;;5031043;28;21071;-67
2023/10/13 05:05:45;;;;;;;16.13;7.50;;;12.20;99.90;;;;;;5028833;28;20468;-66
2023/10/13 05:47:23;;;;;;;14.87;6.70;;;12.60;99.90;;;;;;5049463;28;20467;-66
2023/10/13 05:49:52;;;;;;;12.13;6.73;;;12.70;99.90;;;;;;5049544;28;20444;-67
2023/10/13 06:28:40;;;;;;;15.20;7.83;;;12.60;99.90;;;;;;5049370;28;20454;-67
2023/10/13 06:28:45;;;;;;;14.07;7.13;;;13.90;99.90;;;;;;5048586;28;20500;-68
2023/10/13 06:31:21;;;;;;;19.60;7.10;;;14.00;99.90;;;;;;5048545;28;20561;-67
2023/10/13 06:33:50;;;;;;;16.13;7.70;;;14.20;99.90;;;;;;5048737;28;20495;-69
2023/10/13 06:36:18;;;;;;;16.57;8.00;;;14.30;99.90;;;;;;5049004;28;20458;-66
2023/10/13 06:38:54;;;;;;;15.10;6.70;;;14.50;99.90;;;;;;5048741;28;20461;-67
2023/10/13 06:41:30;;;;;;;15.20;7.40;;;14.60;99.90;;;;;;5048441;28;20478;-68
2023/10/13 06:44:00;;;;;;;15.07;6.20;;;14.80;99.90;;;;;;5048428;28;21024;-67
2023/10/13 06:46:29;;;;;;;15.10;6.20;;;15.20;99.90;;;;;;5048760;28;20972;-68
2023/10/13 06:48:59;;;;;;;14.63;6.60;;;15.30;99.90;;;;;;5048542;28;20471;-67
2023/10/13 06:51:37;;;;;;;14.33;6.87;;;15.50;99.90;;;;;;5048223;28;20542;-68
2023/10/13 06:54:11;;;;;;;14.00;5.70;;;15.80;99.90;;;;;;5048577;28;20489;-68
2023/10/13 06:56:40;;;;;;;12.70;6.07;;;15.80;99.90;;;;;;5048242;28;20968;-68
2023/10/13 06:59:10;;;;;;;13.33;6.20;;;15.90;99.90;;;;;;5048304;28;20444;-68
2023/10/13 07:01:40;;;;;;;14.80;6.53;;;15.70;99.90;;;;;;5047824;28;20491;-66
2023/10/13 07:04:14;;;;;;;15.10;6.10;;;15.80;99.90;;;;;;5048416;28;20505;-67
2023/10/13 07:06:47;;;;;;;11.70;5.70;;;15.70;99.90;;;;;;5048331;28;20440;-67
2023/10/13 07:09:39;;;;;;;17.03;6.10;;;15.70;99.90;;;;;;5048504;28;21198;-67
2023/10/13 07:12:16;;;;;;;13.80;6.07;;;15.80;99.90;;;;;;5047982;28;20443;-69
2023/10/13 07:14:52;;;;;;;17.50;7.83;;;15.70;99.90;;;;;;5048195;28;20501;-66
2023/10/13 07:17:24;;;;;;;15.47;5.93;;;15.80;99.90;;;;;;5048417;28;20530;-68
2023/10/13 07:20:05;;;;;;;17.90;6.60;;;15.80;99.90;;;;;;5048413;28;20447;-67
2023/10/13 07:22:39;;;;;;;21.33;6.90;;;15.70;99.90;;;;;;5047866;28;20487;-69
2023/10/13 07:25:08;;;;;;;16.33;6.50;;;15.80;99.90;;;;;;5048490;28;20896;-69
2023/10/13 07:27:36;;;;;;;10.53;5.13;;;15.80;99.90;;;;;;5048564;28;20462;-68
2023/10/13 07:30:13;;;;;;;15.20;6.30;;;15.80;99.90;;;;;;5048282;28;20456;-67
2023/10/13 07:32:45;;;;;;;15.87;6.57;;;16.00;99.90;;;;;;5047738;28;20462;-69
2023/10/13 07:35:17;;;;;;;14.43;6.27;;;16.10;99.90;;;;;;5048169;28;20859;-67
2023/10/13 07:37:48;;;;;;;13.43;5.67;;;16.30;99.90;;;;;;5048253;28;20432;-68
2023/10/13 07:40:39;;;;;;;12.60;5.80;;;16.40;99.90;;;;;;5048084;28;20953;-67
2023/10/13 07:43:10;;;;;;;14.20;5.73;;;16.60;99.90;;;;;;5047620;28;20567;-67
2023/10/13 07:45:41;;;;;;;12.13;5.70;;;16.60;99.90;;;;;;5047805;28;20447;-67
2023/10/13 07:48:16;;;;;;;11.87;5.37;;;16.70;99.90;;;;;;5048205;28;20548;-68
2023/10/13 07:50:45;;;;;;;17.00;6.10;;;16.80;99.90;;;;;;5047692;28;20452;-68
2023/10/13 07:53:23;;;;;;;13.67;5.90;;;17.00;99.90;;;;;;5048599;28;20456;-68
2023/10/13 07:55:55;;;;;;;14.30;5.90;;;17.10;99.90;;;;;;5051661;28;21012;-67
2023/10/13 07:58:25;;;;;;;14.50;6.00;;;17.20;99.90;;;;;;5052032;28;20444;-67
2023/10/13 08:01:06;;;;;;;16.20;5.60;;;17.40;99.90;;;;;;5051273;28;20444;-68
2023/10/13 08:03:47;;;;;;;13.37;5.47;;;17.60;99.90;;;;;;5051529;28;20583;-68
2023/10/13 08:06:26;;;;;;;14.80;5.37;;;17.70;99.90;;;;;;5051796;28;20471;-68
2023/10/13 08:08:55;;;;;;;14.00;5.43;;;17.90;99.90;;;;;;5051619;28;20435;-70
2023/10/13 08:11:26;;;;;;;16.57;5.47;;;18.10;99.90;;;;;;5051192;28;20471;-67
2023/10/13 08:13:56;;;;;;;12.20;5.60;;;18.40;99.90;;;;;;5051410;28;20538;-68
2023/10/13 08:16:52;;;;;;;12.07;5.00;;;18.60;99.90;;;;;;5051237;28;20448;-68
2023/10/13 08:19:26;;;;;;;14.53;4.50;;;18.80;99.90;;;;;;5051601;28;20511;-68
2023/10/13 08:21:58;;;;;;;11.43;5.20;;;18.90;99.90;;;;;;5050870;28;20483;-68
2023/10/13 08:24:55;;;;;;;15.70;5.53;;;19.20;99.90;;;;;;5051101;28;20547;-68
2023/10/13 08:27:34;;;;;;;11.63;5.20;;;19.40;99.90;;;;;;5050971;28;20470;-68
2023/10/13 08:30:29;;;;;;;11.20;4.80;;;19.60;99.90;;;;;;5051229;28;20555;-66
2023/10/13 08:32:58;;;;;;;14.80;4.30;;;19.80;99.90;;;;;;5050470;28;20522;-66
2023/10/13 08:35:37;;;;;;;12.10;4.93;;;19.90;99.90;;;;;;5051015;28;20444;-67
2023/10/13 08:38:13;;;;;;;11.53;4.50;;;20.10;99.90;;;;;;5050790;28;20877;-66
2023/10/13 08:43:50;;;;;;;12.87;4.67;;;20.50;99.90;;;;;;5050561;28;20549;-68
2023/10/13 08:46:27;;;;;;;10.50;4.00;;;20.70;99.90;;;;;;5050950;28;20458;-67
2023/10/13 08:49:09;;;;;;;13.13;5.63;;;20.90;99.90;;;;;;5050880;28;20447;-67
2023/10/13 08:51:49;;;;;;;13.30;5.27;;;21.20;99.20;;;;;;5050447;28;20802;-67
2023/10/13 08:54:34;;;;;;;13.80;4.13;;;21.40;97.00;;;;;;5050576;28;20474;-68
2023/10/13 08:57:32;;;;;;;11.23;4.27;;;21.50;95.90;;;;;;5050783;28;20440;-67
2023/10/13 09:06:00;;;;;;;11.40;5.17;;;22.10;93.30;;;;;;5106832;27;20511;-66
2023/10/13 09:08:44;;;;;;;10.37;4.00;;;22.20;90.70;;;;;;5101524;28;20955;-66
2023/10/13 09:11:13;;;;;;;11.67;4.47;;;22.30;90.40;;;;;;5098846;28;20468;-66
2023/10/13 09:13:45;;;;;;;11.33;4.37;;;22.40;87.50;;;;;;5098031;28;20456;-67
2023/10/13 09:16:51;;;;;;;13.03;4.30;;;22.60;86.50;;;;;;5102124;28;20442;-67
2023/10/13 09:19:11;;;;;;;10.30;4.13;;;22.70;83.80;;;;;;5099027;28;20473;-67
2023/10/13 09:21:47;;;;;;;14.40;4.53;;;23.00;81.30;;;;;;5105813;28;20873;-66
2023/10/13 09:24:21;;;;;;;10.03;3.50;;;23.30;77.50;;;;;;5106475;28;20476;-65
2023/10/13 09:26:55;;;;;;;15.17;4.47;;;23.60;74.20;;;;;;5106047;28;20858;-64
2023/10/13 09:29:24;;;;;;;11.43;4.00;;;23.90;74.40;;;;;;5106322;28;20456;-65
2023/10/13 09:32:01;;;;;;;12.70;3.80;;;24.30;71.80;;;;;;5103686;28;20494;-64
2023/10/13 09:34:33;;;;;;;12.83;3.50;;;24.50;70.10;;;;;;5101402;28;20902;-64
2023/10/13 09:37:04;;;;;;;15.07;4.10;;;24.70;67.30;;;;;;5105739;28;20544;-64
2023/10/13 09:39:44;;;;;;;11.73;4.50;;;25.00;67.70;;;;;;5106193;28;20854;-64
2023/10/13 09:42:15;;;;;;;12.63;3.87;;;25.30;66.50;;;;;;5105491;28;20479;-64
2023/10/13 09:44:51;;;;;;;15.37;4.23;;;25.50;61.70;;;;;;5097103;28;20569;-64
2023/10/13 09:47:29;;;;;;;14.47;4.20;;;25.90;61.10;;;;;;5105044;28;20892;-65
2023/10/13 09:50:05;;;;;;;10.27;3.90;;;26.20;59.60;;;;;;5093921;28;20490;-64
2023/10/13 09:52:37;;;;;;;11.37;4.00;;;26.20;60.10;;;;;;5100623;28;20466;-65
2023/10/13 09:55:22;;;;;;;14.20;4.10;;;26.40;58.20;;;;;;5097939;28;20515;-65
2023/10/13 09:57:59;;;;;;;11.03;4.00;;;26.50;56.20;;;;;;5095204;28;20484;-66
2023/10/13 10:00:48;;;;;;;17.07;4.27;;;26.90;54.80;;;;;;5097385;28;20488;-66
2023/10/13 10:03:29;;;;;;;15.90;4.73;;;27.30;54.80;;;;;;5099513;28;20494;-67
2023/10/13 10:06:03;;;;;;;12.80;4.67;;;27.70;52.50;;;;;;5098485;28;20504;-66
2023/10/13 10:08:34;;;;;;;11.77;4.00;;;27.90;52.80;;;;;;5100791;28;20985;-66
2023/10/13 10:11:20;;;;;;;12.93;4.10;;;28.10;49.20;;;;;;5092930;28;20437;-66
2023/10/13 10:13:58;;;;;;;11.10;4.00;;;28.30;50.20;;;;;;5096328;28;20439;-67
2023/10/13 10:16:46;;;;;;;9.10;3.80;;;28.50;47.70;;;;;;5079695;28;20442;-66
2023/10/13 10:19:15;;;;;;;10.27;3.40;;;28.60;47.50;;;;;;5082634;28;20935;-67
2023/10/13 10:21:43;;;;;;;10.23;3.57;;;28.90;46.40;;;;;;5082672;28;20930;-67
2023/10/13 10:24:23;;;;;;;10.23;3.27;;;29.10;46.80;;;;;;5078396;28;20572;-66
2023/10/13 10:26:52;;;;;;;12.00;3.57;;;29.20;46.60;;;;;;5083803;28;20538;-66
2023/10/13 10:29:20;;;;;;;10.43;3.73;;;29.40;45.10;;;;;;5090795;28;20992;-67
2023/10/13 10:31:48;;;;;;;11.53;3.50;;;29.20;45.50;;;;;;5085619;28;20453;-66
2023/10/13 10:34:19;;;;;;;14.97;3.60;;;29.10;45.40;;;;;;5074063;28;21125;-66
2023/10/13 10:36:51;;;;;;;11.53;3.97;;;29.10;45.40;;;;;;5071936;28;20466;-66
2023/10/13 10:39:21;;;;;;;12.40;3.70;;;28.70;44.70;;;;;;5065434;28;20465;-66
2023/10/13 10:41:52;;;;;;;12.43;3.70;;;28.50;46.40;;;;;;5064520;28;20542;-67
2023/10/13 10:44:33;;;;;;;10.30;3.20;;;28.20;45.60;;;;;;5070636;28;20521;-66
2023/10/13 10:47:19;;;;;;;11.60;3.33;;;28.30;47.00;;;;;;5090292;28;20457;-66
2023/10/13 10:49:49;;;;;;;13.07;3.40;;;27.90;45.30;;;;;;5075933;28;20439;-66
2023/10/13 10:52:19;;;;;;;9.77;3.40;;;27.20;46.10;;;;;;5071891;28;20843;-65
2023/10/13 10:54:59;;;;;;;12.70;3.60;;;26.70;47.40;;;;;;5074609;28;21075;-66
2023/10/13 10:57:28;;;;;;;14.93;4.83;;;26.90;47.10;;;;;;5083297;28;20837;-66
2023/10/13 11:00:12;;;;;;;14.33;4.07;;;27.90;46.50;;;;;;5075707;28;20439;-66
2023/10/13 11:02:40;;;;;;;16.33;4.47;;;29.00;46.40;;;;;;5080480;28;20515;-65
2023/10/13 11:05:10;;;;;;;10.90;3.37;;;29.20;44.50;;;;;;5089238;28;20559;-66
2023/10/13 11:07:38;;;;;;;9.70;3.60;;;29.30;44.40;;;;;;5075566;28;20478;-66
2023/10/13 11:10:26;;;;;;;11.10;3.60;;;29.50;42.30;;;;;;5075664;28;20833;-65
2023/10/13 11:13:11;;;;;;;10.57;3.80;;;29.60;42.50;;;;;;5077376;28;20480;-65
2023/10/13 11:15:44;;;;;;;12.60;3.90;;;29.40;42.30;;;;;;5086295;28;20434;-65
2023/10/13 11:18:20;;;;;;;11.10;3.90;;;29.10;43.20;;;;;;5083273;28;20999;-66
2023/10/13 11:20:54;;;;;;;8.90;2.90;;;29.10;42.10;;;;;;5082156;28;20434;-66
2023/10/13 11:23:25;;;;;;;12.10;3.70;;;29.70;42.30;;;;;;5081696;28;20972;-65
2023/10/13 11:26:00;;;;;;;13.30;3.97;;;30.50;40.80;;;;;;5085466;28;20482;-66
2023/10/13 11:28:28;;;;;;;9.70;3.07;;;31.00;39.80;;;;;;5085473;28;20573;-65
2023/10/13 11:30:58;;;;;;;11.87;3.83;;;31.40;41.00;;;;;;5080774;28;20507;-65
2023/10/13 11:33:28;;;;;;;10.70;3.53;;;32.00;38.40;;;;;;5084345;28;20434;-65
2023/10/13 11:35:57;;;;;;;13.23;3.43;;;32.20;37.70;;;;;;5080616;28;20427;-66
2023/10/13 11:38:26;;;;;;;10.50;3.47;;;32.60;36.90;;;;;;5080996;28;21052;-66
2023/10/13 11:41:15;;;;;;;13.60;3.47;;;33.20;36.10;;;;;;5079153;28;20541;-66
2023/10/13 11:44:05;;;;;;;9.73;3.23;;;33.80;36.20;;;;;;5084175;28;20537;-66
2023/10/13 11:46:55;;;;;;;9.80;3.67;;;34.20;34.80;;;;;;5084052;28;20489;-66
2023/10/13 11:49:36;;;;;;;11.80;3.60;;;34.20;35.90;;;;;;5083114;28;20526;-65
2023/10/13 11:52:16;;;;;;;10.43;3.40;;;33.60;35.30;;;;;;5074565;28;20435;-65
2023/10/13 11:54:46;;;;;;;9.93;3.73;;;32.40;35.80;;;;;;5079995;28;21119;-66
2023/10/13 11:57:19;;;;;;;12.07;3.40;;;31.50;36.90;;;;;;5086998;28;20451;-65
2023/10/13 11:59:55;;;;;;;13.97;3.33;;;31.60;37.00;;;;;;5079963;28;20449;-66
2023/10/13 12:05:13;;;;;;;12.83;3.50;;;33.50;35.70;;;;;;5074843;28;20493;-65
2023/10/13 12:07:48;;;;;;;11.83;3.60;;;34.40;33.90;;;;;;5083975;28;20516;-66
2023/10/13 12:10:20;;;;;;;13.53;3.70;;;34.70;33.30;;;;;;5087851;28;20434;-66
2023/10/13 12:12:53;;;;;;;14.20;3.90;;;34.80;32.70;;;;;;5087023;28;20442;-66
2023/10/13 12:15:36;;;;;;;13.00;3.70;;;34.50;32.60;;;;;;5073865;28;20431;-66
2023/10/13 12:18:05;;;;;;;12.60;3.70;;;34.50;32.40;;;;;;5083021;28;20557;-66
2023/10/13 12:20:35;;;;;;;8.70;3.87;;;35.00;32.70;;;;;;5087560;28;20442;-65
2023/10/13 12:23:17;;;;;;;11.70;3.63;;;35.20;32.50;;;;;;5080768;28;20478;-66
2023/10/13 12:25:54;;;;;;;12.30;3.20;;;34.60;32.80;;;;;;5082529;28;20479;-66
2023/10/13 12:28:26;;;;;;;11.90;3.63;;;33.80;33.10;;;;;;5080596;28;20494;-66
2023/10/13 12:30:58;;;;;;;12.10;3.13;;;32.60;33.50;;;;;;5078448;28;20435;-66
2023/10/13 12:33:28;;;;;;;10.53;3.53;;;31.90;34.90;;;;;;5086543;28;20535;-65
2023/10/13 12:36:09;;;;;;;10.43;3.67;;;31.10;35.40;;;;;;5082534;28;20861;-66
2023/10/13 12:38:50;;;;;;;13.07;3.73;;;30.60;37.40;;;;;;5073691;28;20461;-66
2023/10/13 12:49:52;;;;;;;9.27;3.93;;;28.30;39.80;;;;;;5075139;28;20435;-65
2023/10/13 12:52:20;;;;;;;11.97;4.07;;;28.20;40.70;;;;;;5079355;28;20821;-66
2023/10/13 12:54:58;;;;;;;10.70;3.80;;;28.40;40.10;;;;;;5066683;22;20952;-68
2023/10/13 12:57:27;;;;;;;9.77;3.00;;;28.60;40.60;;;;;;5024186;28;21000;-69
2023/10/13 12:59:56;;;;;;;11.20;3.53;;;29.00;40.60;;;;;;5027375;28;20449;-70
2023/10/13 13:02:26;;;;;;;10.17;3.80;;;29.60;39.70;;;;;;5027677;28;20495;-67
2023/10/13 13:05:05;;;;;;;12.47;3.90;;;30.10;39.40;;;;;;5028200;28;21263;-67
2023/10/13 13:07:43;;;;;;;12.87;5.10;;;30.30;38.80;;;;;;5027238;28;20453;-68
2023/10/13 13:10:13;;;;;;;12.17;3.30;;;30.20;38.90;;;;;;5023322;28;20456;-68
2023/10/13 13:12:41;;;;;;;13.50;3.40;;;30.10;38.10;;;;;;5023545;28;20955;-68
2023/10/13 13:15:11;;;;;;;11.83;3.87;;;29.80;38.70;;;;;;5027395;28;20617;-67
2023/10/13 13:17:41;;;;;;;12.03;3.20;;;29.70;40.00;;;;;;5025842;28;20445;-67
2023/10/13 13:20:25;;;;;;;11.83;3.60;;;29.80;39.50;;;;;;5027348;28;20881;-67
2023/10/13 13:22:55;;;;;;;11.53;3.60;;;29.80;38.90;;;;;;5026855;28;20437;-69
2023/10/13 13:25:30;;;;;;;11.67;3.70;;;29.50;39.10;;;;;;5027840;28;20846;-67
2023/10/13 13:28:04;;;;;;;10.07;3.30;;;29.50;40.40;;;;;;5025515;28;20465;-70
2023/10/13 13:30:35;;;;;;;9.17;3.43;;;29.30;40.00;;;;;;5020445;28;20883;-67
2023/10/13 13:33:10;;;;;;;12.53;3.40;;;29.30;39.20;;;;;;5024736;28;20473;-67
2023/10/13 13:35:39;;;;;;;10.13;3.90;;;29.40;38.90;;;;;;5025446;28;20445;-67
2023/10/13 13:38:16;;;;;;;9.00;3.20;;;29.30;39.00;;;;;;5027114;28;20449;-68
2023/10/13 13:40:48;;;;;;;11.00;3.67;;;29.20;39.30;;;;;;5025362;28;20451;-68
2023/10/13 13:43:31;;;;;;;13.40;3.60;;;29.30;39.20;;;;;;5025826;28;20465;-68
2023/10/13 13:46:02;;;;;;;10.47;3.57;;;29.30;38.80;;;;;;5025686;28;20852;-68
2023/10/13 13:48:32;;;;;;;12.77;3.30;;;29.30;38.10;;;;;;5027043;28;20441;-69
2023/10/13 13:51:12;;;;;;;10.27;3.50;;;29.40;37.60;;;;;;5026461;28;20473;-67
2023/10/13 13:53:44;;;;;;;11.00;3.20;;;29.30;38.20;;;;;;5030021;28;20547;-68
2023/10/13 13:56:15;;;;;;;12.27;3.10;;;29.30;38.40;;;;;;5031051;28;21111;-67
2023/10/13 13:58:44;;;;;;;14.53;4.23;;;29.20;37.30;;;;;;5031919;28;20468;-68
2023/10/13 14:01:15;;;;;;;11.93;3.63;;;29.20;37.10;;;;;;5029936;28;20535;-68
2023/10/13 14:03:46;;;;;;;9.87;3.33;;;29.10;37.30;;;;;;5030754;28;20560;-68
2023/10/13 14:06:18;;;;;;;10.20;3.13;;;29.00;37.30;;;;;;5029599;28;20488;-68
2023/10/13 14:08:48;;;;;;;11.07;4.03;;;28.90;38.00;;;;;;5031488;28;20539;-65
2023/10/13 14:14:11;;;;;;;11.83;3.30;;;28.80;37.90;;;;;;5029029;28;21021;-68
2023/10/13 14:16:44;;;;;;;11.60;3.33;;;28.80;38.10;;;;;;5030947;28;20437;-69
2023/10/13 14:19:19;;;;;;;10.27;5.70;;;28.90;37.40;;;;;;5030493;28;21013;-69
2023/10/13 14:21:53;;;;;;;9.60;3.57;;;28.90;38.30;;;;;;5030604;28;20904;-68
2023/10/13 14:24:27;;;;;;;11.13;3.77;;;28.80;37.30;;;;;;5030208;28;20486;-67
2023/10/13 14:26:55;;;;;;;11.73;3.50;;;28.70;37.70;;;;;;5027945;28;20512;-68
2023/10/13 14:29:26;;;;;;;9.13;3.20;;;28.70;37.10;;;;;;5028998;28;20464;-68
2023/10/13 14:31:55;;;;;;;9.30;3.30;;;28.60;37.60;;;;;;5028809;28;20460;-67
2023/10/13 14:34:26;;;;;;;11.53;3.40;;;28.60;37.60;;;;;;5026189;28;20492;-68
2023/10/13 14:36:54;;;;;;;11.27;2.90;;;28.60;37.80;;;;;;5023354;28;20452;-70
2023/10/13 14:39:22;;;;;;;10.27;3.43;;;28.70;37.70;;;;;;5028016;28;20455;-69
2023/10/13 14:41:50;;;;;;;13.50;3.70;;;28.50;38.70;;;;;;5022657;28;20532;-70
2023/10/13 14:44:18;;;;;;;8.83;3.13;;;28.50;37.60;;;;;;5026008;28;20527;-68
2023/10/13 14:46:46;;;;;;;16.30;3.87;;;28.50;37.90;;;;;;5026969;28;20477;-69
2023/10/13 14:49:18;;;;;;;12.87;4.60;;;28.50;38.90;;;;;;5030284;28;20519;-69
2023/10/13 14:51:49;;;;;;;9.80;4.20;;;28.50;37.70;;;;;;5027347;28;20468;-69
2023/10/13 14:54:25;;;;;;;10.07;3.17;;;28.40;38.40;;;;;;5030048;28;20989;-70
2023/10/13 14:56:54;;;;;;;11.40;3.20;;;28.40;37.80;;;;;;5030484;28;20495;-68
2023/10/13 14:59:22;;;;;;;10.00;3.20;;;28.50;37.40;;;;;;5028428;28;20463;-68
2023/10/13 15:01:50;;;;;;;9.90;2.80;;;28.60;37.20;;;;;;5029024;28;20445;-69
2023/10/13 15:04:18;;;;;;;9.53;2.80;;;29.10;37.20;;;;;;5029439;28;20573;-68
2023/10/13 15:06:47;;;;;;;10.90;3.33;;;29.60;35.80;;;;;;5030119;28;20484;-69
2023/10/13 15:09:23;;;;;;;12.20;3.50;;;29.70;36.30;;;;;;5030379;28;20445;-68